createdAt,value
2023-03-02T00:00:10.816Z,11.05
2023-03-02T00:02:59.330Z,11.00
2023-03-02T00:05:48.329Z,11.18
2023-03-02T00:08:39.246Z,9.93
2023-03-02T00:11:27.866Z,11.10
2023-03-02T00:14:16.353Z,10.50
2023-03-02T00:17:04.914Z,10.40
2023-03-02T00:19:53.417Z,11.75
2023-03-02T00:22:43.358Z,11.18
2023-03-02T00:25:33.182Z,10.10
2023-03-02T00:28:21.650Z,10.70
2023-03-02T00:31:10.689Z,10.30
2023-03-02T00:33:59.214Z,10.43
2023-03-02T00:36:49.573Z,10.80
2023-03-02T00:39:38.108Z,11.52
2023-03-02T00:42:28.013Z,11.48
2023-03-02T00:45:16.483Z,12.75
2023-03-02T00:48:05.068Z,11.32
2023-03-02T00:50:53.543Z,11.55
2023-03-02T00:53:42.342Z,15.23
2023-03-02T00:56:31.554Z,13.83
2023-03-02T00:59:30.518Z,13.63
2023-03-02T01:02:21.552Z,12.95
2023-03-02T01:05:10.602Z,15.40
2023-03-02T01:07:59.021Z,16.20
2023-03-02T01:10:47.527Z,17.33
2023-03-02T01:13:36.325Z,15.30
2023-03-02T01:16:26.266Z,15.20
2023-03-02T01:19:15.381Z,16.27
2023-03-02T01:22:04.074Z,17.67
2023-03-02T01:24:53.288Z,15.73
2023-03-02T01:27:41.815Z,15.07
2023-03-02T01:30:30.319Z,14.73
2023-03-02T01:33:20.180Z,15.82
2023-03-02T01:36:09.587Z,14.67
2023-03-02T01:38:58.022Z,16.38
2023-03-02T01:41:47.524Z,14.85
2023-03-02T01:44:39.502Z,14.77
2023-03-02T01:47:33.420Z,16.30
2023-03-02T01:50:26.205Z,15.73
2023-03-02T01:53:16.926Z,17.55
2023-03-02T01:56:06.667Z,19.42
2023-03-02T01:59:01.964Z,17.38
2023-03-02T02:01:54.944Z,17.05
2023-03-02T02:04:46.192Z,16.58
2023-03-02T02:07:36.109Z,16.50
2023-03-02T02:10:24.752Z,16.70
2023-03-02T02:13:13.192Z,18.23
2023-03-02T02:16:02.030Z,16.55
2023-03-02T02:18:50.691Z,16.83
2023-03-02T02:21:39.245Z,16.83
2023-03-02T02:24:35.364Z,17.15
2023-03-02T02:27:29.780Z,16.77
2023-03-02T02:30:18.517Z,18.88
2023-03-02T02:33:08.281Z,17.92
2023-03-02T02:36:02.990Z,20.40
2023-03-02T02:38:55.375Z,19.30
2023-03-02T02:41:44.829Z,17.48
2023-03-02T02:44:34.935Z,17.75
2023-03-02T02:47:23.948Z,17.60
2023-03-02T02:50:19.707Z,17.00
2023-03-02T02:53:13.526Z,16.52
2023-03-02T02:56:02.553Z,16.85
2023-03-02T02:58:53.676Z,17.88
2023-03-02T03:01:44.588Z,16.35
2023-03-02T03:04:34.137Z,16.60
2023-03-02T03:07:24.880Z,19.13
2023-03-02T03:10:18.757Z,16.70
2023-03-02T03:13:08.580Z,17.23
2023-03-02T03:15:57.167Z,16.70
2023-03-02T03:18:50.444Z,15.35
2023-03-02T03:21:38.849Z,17.83
2023-03-02T03:24:27.956Z,15.95
2023-03-02T03:27:18.242Z,15.70
2023-03-02T03:30:07.773Z,17.60
2023-03-02T03:32:56.258Z,15.85
2023-03-02T03:35:46.105Z,16.02
2023-03-02T03:38:34.957Z,16.60
2023-03-02T03:41:23.529Z,16.83
2023-03-02T03:44:12.408Z,18.52
2023-03-02T03:47:01.110Z,16.55
2023-03-02T03:49:49.567Z,17.88
2023-03-02T03:52:39.402Z,17.92
2023-03-02T03:55:29.081Z,19.25
2023-03-02T03:58:17.651Z,18.00
2023-03-02T04:01:06.411Z,17.65
2023-03-02T04:03:54.882Z,19.92
2023-03-02T04:06:43.472Z,18.48
2023-03-02T04:09:37.757Z,17.55
2023-03-02T04:12:26.239Z,19.02
2023-03-02T04:15:16.881Z,21.65
2023-03-02T04:18:05.674Z,24.00
2023-03-02T04:20:54.079Z,25.15
2023-03-02T04:23:42.587Z,23.33
2023-03-02T04:26:32.842Z,24.15
2023-03-02T04:29:21.568Z,20.57
2023-03-02T04:32:10.199Z,21.55
2023-03-02T04:34:58.661Z,22.38
2023-03-02T04:37:47.315Z,22.67
2023-03-02T04:40:36.016Z,21.25
2023-03-02T04:43:26.799Z,20.93
2023-03-02T04:46:16.952Z,20.95
2023-03-02T04:49:06.110Z,23.33
2023-03-02T04:51:54.513Z,23.55
2023-03-02T04:54:42.990Z,22.40
2023-03-02T04:57:31.518Z,23.75
2023-03-02T05:00:22.189Z,21.40
2023-03-02T05:03:10.666Z,24.65
2023-03-02T05:05:59.199Z,26.58
2023-03-02T05:08:47.634Z,22.65
2023-03-02T05:11:36.390Z,22.65
2023-03-02T05:14:26.045Z,23.20
2023-03-02T05:17:15.891Z,20.83
2023-03-02T05:20:07.206Z,21.65
2023-03-02T05:22:56.677Z,22.13
2023-03-02T05:25:45.148Z,22.27
2023-03-02T05:28:33.996Z,22.38
2023-03-02T05:31:30.752Z,23.33
2023-03-02T05:34:20.556Z,24.67
2023-03-02T05:37:08.968Z,23.77
2023-03-02T05:39:57.385Z,24.75
2023-03-02T05:42:46.444Z,28.17
2023-03-02T05:45:37.056Z,26.33
2023-03-02T05:48:25.586Z,27.25
2023-03-02T05:51:15.700Z,27.33
2023-03-02T05:54:04.291Z,24.98
2023-03-02T05:56:52.781Z,23.23
2023-03-02T05:59:41.193Z,24.88
2023-03-02T06:02:29.614Z,23.43
2023-03-02T06:05:20.075Z,24.98
2023-03-02T06:08:09.950Z,26.10
2023-03-02T06:10:58.979Z,25.35
2023-03-02T06:13:47.393Z,23.77
2023-03-02T06:16:37.243Z,25.17
2023-03-02T06:19:25.958Z,23.05
2023-03-02T06:22:14.393Z,21.97
2023-03-02T06:25:04.260Z,22.27
2023-03-02T06:27:53.811Z,21.88
2023-03-02T06:30:42.582Z,21.83
2023-03-02T06:33:31.359Z,21.17
2023-03-02T06:36:19.946Z,24.80
2023-03-02T06:39:15.677Z,20.92
2023-03-02T06:42:05.576Z,23.02
2023-03-02T06:44:55.080Z,21.60
2023-03-02T06:47:43.596Z,21.58
2023-03-02T06:50:32.706Z,21.50
2023-03-02T06:53:23.386Z,21.60
2023-03-02T06:56:11.976Z,20.33
2023-03-02T06:59:02.089Z,20.58
2023-03-02T07:01:51.646Z,20.27
2023-03-02T07:04:40.269Z,21.33
2023-03-02T07:07:28.806Z,20.05
2023-03-02T07:10:17.708Z,23.20
2023-03-02T07:13:08.741Z,23.27
2023-03-02T07:15:58.987Z,21.08
2023-03-02T07:18:47.427Z,22.52
2023-03-02T07:21:35.849Z,20.48
2023-03-02T07:24:24.626Z,19.20
2023-03-02T07:27:13.146Z,19.33
2023-03-02T07:30:01.643Z,19.75
2023-03-02T07:32:51.853Z,19.90
2023-03-02T07:35:40.266Z,20.13
2023-03-02T07:38:29.359Z,21.33
2023-03-02T07:41:18.135Z,22.23
2023-03-02T07:44:06.813Z,21.60
2023-03-02T07:46:55.380Z,20.97
2023-03-02T07:49:45.172Z,22.38
2023-03-02T07:52:33.665Z,21.83
2023-03-02T07:55:22.193Z,24.10
2023-03-02T07:58:10.638Z,24.88
2023-03-02T08:00:59.082Z,24.27
2023-03-02T08:03:47.511Z,22.77
2023-03-02T08:06:37.357Z,21.02
2023-03-02T08:09:25.829Z,23.55
2023-03-02T08:12:14.276Z,23.92
2023-03-02T08:15:04.777Z,23.27
2023-03-02T08:17:53.505Z,21.83
2023-03-02T08:20:41.899Z,22.60
2023-03-02T08:23:31.769Z,24.27
2023-03-02T08:26:20.918Z,25.75
2023-03-02T08:29:09.326Z,24.27
2023-03-02T08:31:59.005Z,23.90
2023-03-02T08:34:51.307Z,21.97
2023-03-02T08:37:39.811Z,24.38
2023-03-02T08:40:29.677Z,23.70
2023-03-02T08:43:18.096Z,24.63
2023-03-02T08:46:07.125Z,26.02
2023-03-02T08:48:55.717Z,23.92
2023-03-02T08:51:44.825Z,22.95
2023-03-02T08:54:34.605Z,25.90
2023-03-02T08:57:24.453Z,26.10
2023-03-02T09:00:14.915Z,25.53
2023-03-02T09:03:03.452Z,23.15
2023-03-02T09:05:52.132Z,25.53
2023-03-02T09:08:40.639Z,25.80
2023-03-02T09:11:29.379Z,28.23
2023-03-02T09:14:19.187Z,27.20
2023-03-02T09:17:08.055Z,26.30
2023-03-02T09:19:56.605Z,25.75
2023-03-02T09:22:48.650Z,24.60
2023-03-02T09:25:37.123Z,27.87
2023-03-02T09:28:26.314Z,25.55
2023-03-02T09:31:16.525Z,28.48
2023-03-02T09:34:06.478Z,27.80
2023-03-02T09:36:55.148Z,25.90
2023-03-02T09:39:43.811Z,27.92
2023-03-02T09:42:44.379Z,24.25
2023-03-02T09:45:42.489Z,25.33
2023-03-02T09:48:37.939Z,26.50
2023-03-02T09:51:39.246Z,26.13
2023-03-02T09:54:28.069Z,29.33
2023-03-02T09:57:22.782Z,27.13
2023-03-02T10:00:19.623Z,30.08
2023-03-02T10:03:16.953Z,29.30
2023-03-02T10:06:07.748Z,30.13
2023-03-02T10:08:57.032Z,29.88
2023-03-02T10:11:54.872Z,27.33
2023-03-02T10:14:45.938Z,24.50
2023-03-02T10:17:40.658Z,28.02
2023-03-02T10:20:35.116Z,22.80
2023-03-02T10:23:36.977Z,26.70
2023-03-02T10:26:39.726Z,27.80
2023-03-02T10:29:52.329Z,28.25
2023-03-02T10:32:46.305Z,26.92
2023-03-02T10:35:35.975Z,28.63
2023-03-02T10:38:26.210Z,26.13
2023-03-02T10:41:19.415Z,26.00
2023-03-02T10:44:15.235Z,25.10
2023-03-02T10:47:04.160Z,23.45
2023-03-02T10:49:53.564Z,20.55
2023-03-02T10:52:59.530Z,23.95
2023-03-02T10:55:50.316Z,21.85
2023-03-02T10:58:40.409Z,22.88
2023-03-02T11:01:29.131Z,22.25
2023-03-02T11:04:17.950Z,21.25
2023-03-02T11:07:12.221Z,20.23
2023-03-02T11:10:01.914Z,19.35
2023-03-02T11:12:51.833Z,22.05
2023-03-02T11:15:46.634Z,20.60
2023-03-02T11:18:38.862Z,19.77
2023-03-02T11:21:29.473Z,23.60
2023-03-02T11:24:20.449Z,23.63
2023-03-02T11:27:12.237Z,20.83
2023-03-02T11:30:02.703Z,18.70
2023-03-02T11:32:55.549Z,23.42
2023-03-02T11:35:46.710Z,22.27
2023-03-02T11:38:38.932Z,21.50
2023-03-02T11:41:30.573Z,24.10
2023-03-02T11:44:20.408Z,21.63
2023-03-02T11:47:10.937Z,23.70
2023-03-02T11:50:03.689Z,23.58
2023-03-02T11:52:54.662Z,23.15
2023-03-02T11:55:45.726Z,22.23
2023-03-02T11:58:34.732Z,23.40
2023-03-02T12:01:25.922Z,25.58
2023-03-02T12:04:27.616Z,24.85
2023-03-02T12:07:22.868Z,23.42
2023-03-02T12:10:28.493Z,23.42
2023-03-02T12:13:18.880Z,24.13
2023-03-02T12:16:20.127Z,24.98
2023-03-02T12:19:26.011Z,21.05
2023-03-02T12:22:15.471Z,23.80
2023-03-02T12:25:08.620Z,26.50
2023-03-02T12:27:57.823Z,23.85
2023-03-02T12:30:46.610Z,25.25
2023-03-02T12:33:40.162Z,26.17
2023-03-02T12:36:31.759Z,21.73
2023-03-02T12:39:29.262Z,23.40
2023-03-02T12:42:29.234Z,23.40
2023-03-02T12:45:26.392Z,21.60
2023-03-02T12:48:26.803Z,22.30
2023-03-02T12:51:18.434Z,24.27
2023-03-02T12:54:08.230Z,24.35
2023-03-02T12:57:08.805Z,22.85
2023-03-02T12:59:59.663Z,27.67
2023-03-02T13:02:49.446Z,24.27
2023-03-02T13:05:38.340Z,22.27
2023-03-02T13:08:28.820Z,24.23
2023-03-02T13:11:28.452Z,24.40
2023-03-02T13:14:22.317Z,23.20
2023-03-02T13:17:21.903Z,22.37
2023-03-02T13:20:12.976Z,26.25
2023-03-02T13:23:01.783Z,25.55
2023-03-02T13:25:51.566Z,26.70
2023-03-02T13:28:41.224Z,25.63
2023-03-02T13:31:31.854Z,26.02
2023-03-02T13:34:23.862Z,26.05
2023-03-02T13:37:18.871Z,29.27
2023-03-02T13:40:08.392Z,28.60
2023-03-02T13:42:57.095Z,27.17
2023-03-02T13:45:52.609Z,26.85
2023-03-02T13:48:41.449Z,25.65
2023-03-02T13:51:32.562Z,27.23
2023-03-02T13:54:22.607Z,31.90
2023-03-02T13:57:16.330Z,27.50
2023-03-02T14:00:06.180Z,26.57
2023-03-02T14:02:54.920Z,26.00
2023-03-02T14:05:43.637Z,26.67
2023-03-02T14:08:33.836Z,25.30
2023-03-02T14:11:22.778Z,23.38
2023-03-02T14:14:14.301Z,30.23
2023-03-02T14:17:02.983Z,25.50
2023-03-02T14:19:53.592Z,24.98
2023-03-02T14:22:44.493Z,30.02
2023-03-02T14:25:34.572Z,27.00
2023-03-02T14:28:26.524Z,24.02
2023-03-02T14:31:15.268Z,23.38
2023-03-02T14:34:04.073Z,31.45
2023-03-02T14:36:53.717Z,27.48
2023-03-02T14:39:43.194Z,28.90
2023-03-02T14:42:33.330Z,31.63
2023-03-02T14:45:23.092Z,22.43
2023-03-02T14:48:11.794Z,34.13
2023-03-02T14:51:04.064Z,33.97
2023-03-02T14:53:53.460Z,42.22
2023-03-02T14:56:42.638Z,34.20
2023-03-02T14:59:32.727Z,34.47
2023-03-02T15:02:25.928Z,38.33
2023-03-02T15:05:15.120Z,29.95
2023-03-02T15:08:03.803Z,31.15
2023-03-02T15:10:52.792Z,31.92
2023-03-02T15:13:41.490Z,32.00
2023-03-02T15:16:31.668Z,30.50
2023-03-02T15:19:20.358Z,33.13
2023-03-02T15:22:08.806Z,31.98
2023-03-02T15:24:57.333Z,31.33
2023-03-02T15:27:45.763Z,32.25
2023-03-02T15:30:34.263Z,30.90
2023-03-02T15:33:24.437Z,28.30
2023-03-02T15:36:23.939Z,27.65
2023-03-02T15:39:18.282Z,28.55
2023-03-02T15:42:08.239Z,23.45
2023-03-02T15:44:57.032Z,30.40
2023-03-02T15:47:45.796Z,28.92
2023-03-02T15:50:35.925Z,28.52
2023-03-02T15:53:24.655Z,27.77
2023-03-02T15:56:15.951Z,28.52
2023-03-02T15:59:04.908Z,30.27
2023-03-02T16:01:54.064Z,29.35
2023-03-02T16:04:42.996Z,29.25
2023-03-02T16:07:34.446Z,29.48
2023-03-02T16:10:26.170Z,28.92
2023-03-02T16:13:14.944Z,39.03
2023-03-02T16:16:04.242Z,26.33
2023-03-02T16:18:53.014Z,32.78
2023-03-02T16:21:41.803Z,33.50
2023-03-02T16:24:31.966Z,28.40
2023-03-02T16:27:20.680Z,32.22
2023-03-02T16:30:10.165Z,31.65
2023-03-02T16:32:59.736Z,22.43
2023-03-02T16:35:50.340Z,30.05
2023-03-02T16:38:39.796Z,32.28
2023-03-02T16:41:29.943Z,36.42
2023-03-02T16:44:18.962Z,27.75
2023-03-02T16:47:07.675Z,33.08
2023-03-02T16:49:56.416Z,24.70
2023-03-02T16:52:45.405Z,24.98
2023-03-02T16:55:34.119Z,25.63
2023-03-02T16:58:24.181Z,24.58
2023-03-02T17:01:13.886Z,23.02
2023-03-02T17:04:04.860Z,24.58
2023-03-02T17:07:01.813Z,22.90
2023-03-02T17:09:50.637Z,25.05
2023-03-02T17:12:39.331Z,23.58
2023-03-02T17:15:29.541Z,23.35
2023-03-02T17:18:18.329Z,21.05
2023-03-02T17:21:07.337Z,23.75
2023-03-02T17:23:56.088Z,23.85
2023-03-02T17:26:46.776Z,22.00
2023-03-02T17:29:35.600Z,22.30
2023-03-02T17:32:25.889Z,24.05
2023-03-02T17:35:15.367Z,24.10
2023-03-02T17:38:04.181Z,24.20
2023-03-02T17:40:52.935Z,23.80
2023-03-02T17:43:42.327Z,23.85
2023-03-02T17:46:32.554Z,22.30
2023-03-02T17:49:22.824Z,24.35
2023-03-02T17:52:11.529Z,25.60
2023-03-02T17:54:59.905Z,24.87
2023-03-02T17:57:48.490Z,24.38
2023-03-02T18:00:40.504Z,23.88
2023-03-02T18:03:29.286Z,22.27
2023-03-02T18:06:20.741Z,24.17
2023-03-02T18:09:10.117Z,25.05
2023-03-02T18:11:58.860Z,23.10
2023-03-02T18:14:47.647Z,22.50
2023-03-02T18:17:36.393Z,22.48
2023-03-02T18:20:25.153Z,25.48
2023-03-02T18:23:15.274Z,26.00
2023-03-02T18:26:04.048Z,27.30
2023-03-02T18:28:52.857Z,26.90
2023-03-02T18:31:41.629Z,26.95
2023-03-02T18:34:30.442Z,24.77
2023-03-02T18:37:18.977Z,26.33
2023-03-02T18:40:10.642Z,25.70
2023-03-02T18:42:59.380Z,27.23
2023-03-02T18:45:48.186Z,27.23
2023-03-02T18:48:37.473Z,28.75
2023-03-02T18:51:26.466Z,28.38
2023-03-02T18:54:14.883Z,30.20
2023-03-02T18:57:07.431Z,25.50
2023-03-02T18:59:56.047Z,25.50
2023-03-02T19:02:44.739Z,28.05
2023-03-02T19:05:33.311Z,28.00
2023-03-02T19:08:23.441Z,27.27
2023-03-02T19:11:12.522Z,24.25
2023-03-02T19:14:02.616Z,27.45
2023-03-02T19:16:51.580Z,27.33
2023-03-02T19:19:43.246Z,25.63
2023-03-02T19:22:32.869Z,28.10
2023-03-02T19:25:21.743Z,28.35
2023-03-02T19:28:10.240Z,26.60
2023-03-02T19:31:04.055Z,25.95
2023-03-02T19:33:52.430Z,25.38
2023-03-02T19:36:41.127Z,29.92
2023-03-02T19:39:29.804Z,27.80
2023-03-02T19:42:18.318Z,27.45
2023-03-02T19:45:08.281Z,25.15
2023-03-02T19:47:58.844Z,27.05
2023-03-02T19:50:47.700Z,26.27
2023-03-02T19:53:37.986Z,25.53
2023-03-02T19:56:30.272Z,26.42
2023-03-02T19:59:19.058Z,26.02
2023-03-02T20:02:09.180Z,26.75
2023-03-02T20:04:59.320Z,25.25
2023-03-02T20:07:48.065Z,25.85
2023-03-02T20:10:38.724Z,26.93
2023-03-02T20:13:27.411Z,24.98
2023-03-02T20:16:16.349Z,27.10
2023-03-02T20:19:06.195Z,24.42
2023-03-02T20:21:55.979Z,21.50
2023-03-02T20:24:44.874Z,27.33
2023-03-02T20:27:33.385Z,28.40
2023-03-02T20:30:27.704Z,28.90
2023-03-02T20:33:17.412Z,25.05
2023-03-02T20:36:07.225Z,25.53
2023-03-02T20:39:01.835Z,24.60
2023-03-02T20:41:50.458Z,28.85
2023-03-02T20:44:39.014Z,27.63
2023-03-02T20:47:27.653Z,25.98
2023-03-02T20:50:19.735Z,28.27
2023-03-02T20:53:09.007Z,27.65
2023-03-02T20:55:59.363Z,25.25
2023-03-02T20:58:49.227Z,28.38
2023-03-02T21:01:37.953Z,28.75
2023-03-02T21:04:26.517Z,27.10
2023-03-02T21:07:15.752Z,31.67
2023-03-02T21:10:04.968Z,30.25
2023-03-02T21:12:55.139Z,30.88
2023-03-02T21:15:43.653Z,30.15
2023-03-02T21:18:32.656Z,32.43
2023-03-02T21:21:27.232Z,34.10
2023-03-02T21:24:25.220Z,29.50
2023-03-02T21:27:14.059Z,30.05
2023-03-02T21:30:06.095Z,32.55
2023-03-02T21:32:54.776Z,31.58
2023-03-02T21:35:43.251Z,32.30
2023-03-02T21:38:32.176Z,27.55
2023-03-02T21:41:21.052Z,26.88
2023-03-02T21:44:09.644Z,25.80
2023-03-02T21:46:59.581Z,30.02
2023-03-02T21:49:48.074Z,31.90
2023-03-02T21:52:39.918Z,30.50
2023-03-02T21:55:29.401Z,30.77
2023-03-02T21:58:17.875Z,31.35
2023-03-02T22:01:06.508Z,30.77
2023-03-02T22:03:56.945Z,33.00
2023-03-02T22:06:45.409Z,30.42
2023-03-02T22:09:33.882Z,28.75
2023-03-02T22:12:24.344Z,31.75
2023-03-02T22:15:15.497Z,29.08
2023-03-02T22:18:07.720Z,30.92
2023-03-02T22:20:57.485Z,32.28
2023-03-02T22:23:45.916Z,27.80
2023-03-02T22:26:41.448Z,28.23
2023-03-02T22:29:32.997Z,29.67
2023-03-02T22:32:23.158Z,29.90
2023-03-02T22:35:21.949Z,27.63
2023-03-02T22:38:19.089Z,31.67
2023-03-02T22:41:11.426Z,29.03
2023-03-02T22:43:59.853Z,31.58
2023-03-02T22:46:48.390Z,26.10
2023-03-02T22:49:36.835Z,27.08
2023-03-02T22:52:28.741Z,27.90
2023-03-02T22:55:32.877Z,25.05
2023-03-02T22:58:44.614Z,30.42
2023-03-02T23:01:40.264Z,30.92
2023-03-02T23:04:32.604Z,31.03
2023-03-02T23:07:23.102Z,31.42
2023-03-02T23:10:22.424Z,31.38
2023-03-02T23:13:12.534Z,34.20
2023-03-02T23:16:02.448Z,33.13
2023-03-02T23:18:51.587Z,31.10
2023-03-02T23:21:41.977Z,32.25
2023-03-02T23:24:30.574Z,30.05
2023-03-02T23:27:19.009Z,30.53
2023-03-02T23:30:10.330Z,30.90
2023-03-02T23:32:58.781Z,32.97
2023-03-02T23:35:47.314Z,33.00
2023-03-02T23:38:35.805Z,29.63
2023-03-02T23:41:24.273Z,31.73
2023-03-02T23:44:12.728Z,26.92
2023-03-02T23:47:03.445Z,27.40
2023-03-02T23:49:51.967Z,31.98
2023-03-02T23:52:41.333Z,33.30
2023-03-02T23:55:30.089Z,33.30
2023-03-02T23:58:18.968Z,30.65
